createdAt,value
2018-02-22T00:02:19.124Z,14.73
2018-02-22T00:04:46.625Z,13.60
2018-02-22T00:07:14.340Z,13.77
2018-02-22T00:09:41.808Z,14.40
2018-02-22T00:12:09.561Z,13.70
2018-02-22T00:14:37.019Z,13.80
2018-02-22T00:17:04.497Z,13.30
2018-02-22T00:19:32.244Z,14.65
2018-02-22T00:21:59.706Z,11.90
2018-02-22T00:24:27.476Z,13.30
2018-02-22T00:26:55.228Z,13.25
2018-02-22T00:29:22.688Z,16.27
2018-02-22T00:31:50.157Z,14.00
2018-02-22T00:34:17.687Z,13.75
2018-02-22T00:36:45.279Z,12.88
2018-02-22T00:39:12.833Z,13.93
2018-02-22T00:41:40.392Z,14.75
2018-02-22T00:44:08.048Z,13.70
2018-02-22T00:46:35.520Z,12.98
2018-02-22T00:49:02.999Z,11.90
2018-02-22T00:51:30.735Z,12.10
2018-02-22T00:53:58.496Z,12.68
2018-02-22T00:56:26.172Z,13.85
2018-02-22T00:58:53.627Z,12.45
2018-02-22T01:01:21.128Z,12.25
2018-02-22T01:03:48.791Z,11.23
2018-02-22T01:06:16.363Z,11.95
2018-02-22T01:08:43.827Z,13.73
2018-02-22T01:11:11.311Z,13.20
2018-02-22T01:13:38.764Z,12.07
2018-02-22T01:16:06.525Z,9.85
2018-02-22T01:18:33.995Z,11.82
2018-02-22T01:21:01.759Z,10.88
2018-02-22T01:23:29.239Z,14.00
2018-02-22T01:25:56.988Z,11.80
2018-02-22T01:28:24.668Z,13.05
2018-02-22T01:30:52.205Z,11.80
2018-02-22T01:33:19.948Z,12.00
2018-02-22T01:35:47.425Z,15.10
2018-02-22T01:38:15.191Z,12.27
2018-02-22T01:40:42.657Z,12.00
2018-02-22T01:43:10.417Z,11.93
2018-02-22T01:45:38.180Z,10.35
2018-02-22T01:48:05.651Z,10.55
2018-02-22T01:50:33.408Z,11.65
2018-02-22T01:53:01.173Z,11.93
2018-02-22T01:55:28.940Z,11.93
2018-02-22T01:57:56.707Z,12.25
2018-02-22T02:00:24.473Z,11.27
2018-02-22T02:02:51.939Z,12.15
2018-02-22T02:05:19.689Z,11.90
2018-02-22T02:07:47.147Z,12.32
2018-02-22T02:10:14.915Z,11.30
2018-02-22T02:12:42.380Z,11.95
2018-02-22T02:15:10.134Z,10.55
2018-02-22T02:17:37.600Z,10.13
2018-02-22T02:20:05.364Z,10.68
2018-02-22T02:22:33.039Z,10.10
2018-02-22T02:25:00.586Z,10.60
2018-02-22T02:27:28.133Z,9.70
2018-02-22T02:29:55.808Z,12.50
2018-02-22T02:32:23.573Z,12.43
2018-02-22T02:34:51.335Z,11.45
2018-02-22T02:37:19.100Z,11.45
2018-02-22T02:39:46.557Z,8.38
2018-02-22T02:42:14.261Z,10.10
2018-02-22T02:44:41.936Z,11.55
2018-02-22T02:47:09.460Z,11.90
2018-02-22T02:49:36.934Z,10.15
2018-02-22T02:52:04.459Z,11.52
2018-02-22T02:54:32.158Z,11.85
2018-02-22T02:56:59.625Z,12.02
2018-02-22T02:59:27.084Z,11.65
2018-02-22T03:01:54.603Z,10.35
2018-02-22T03:04:22.371Z,11.73
2018-02-22T03:06:50.760Z,11.35
2018-02-22T03:09:18.427Z,10.55
2018-02-22T03:11:45.971Z,11.00
2018-02-22T03:14:13.731Z,10.50
2018-02-22T03:16:41.495Z,10.80
2018-02-22T03:19:09.184Z,11.65
2018-02-22T03:21:36.720Z,10.23
2018-02-22T03:24:04.188Z,11.12
2018-02-22T03:26:31.952Z,10.63
2018-02-22T03:28:59.403Z,10.65
2018-02-22T03:31:27.153Z,12.75
2018-02-22T03:33:54.636Z,8.32
2018-02-22T03:36:22.395Z,11.27
2018-02-22T03:38:50.151Z,11.80
2018-02-22T03:41:17.927Z,11.35
2018-02-22T03:43:45.689Z,10.27
2018-02-22T03:46:13.456Z,9.40
2018-02-22T03:48:41.136Z,11.00
2018-02-22T03:51:09.376Z,12.37
2018-02-22T03:53:36.840Z,10.15
2018-02-22T03:56:04.512Z,11.88
2018-02-22T03:58:32.051Z,10.60
2018-02-22T04:00:59.511Z,11.45
2018-02-22T04:03:26.976Z,10.65
2018-02-22T04:05:54.572Z,11.07
2018-02-22T04:08:22.107Z,10.40
2018-02-22T04:10:49.877Z,11.60
2018-02-22T04:13:17.636Z,9.70
2018-02-22T04:15:45.399Z,12.18
2018-02-22T04:18:12.864Z,11.35
2018-02-22T04:20:40.630Z,11.50
2018-02-22T04:23:08.392Z,11.18
2018-02-22T04:25:35.852Z,11.18
2018-02-22T04:28:03.316Z,10.88
2018-02-22T04:30:30.772Z,10.88
2018-02-22T04:32:58.239Z,9.88
2018-02-22T04:35:25.988Z,11.23
2018-02-22T04:37:53.452Z,9.02
2018-02-22T04:40:21.216Z,11.75
2018-02-22T04:42:48.976Z,11.85
2018-02-22T04:45:16.431Z,11.65
2018-02-22T04:47:43.903Z,12.02
2018-02-22T04:50:11.572Z,12.40
2018-02-22T04:52:39.063Z,11.45
2018-02-22T04:55:06.530Z,11.25
2018-02-22T04:57:34.029Z,11.10
2018-02-22T05:00:01.796Z,9.63
2018-02-22T05:02:29.558Z,12.20
2018-02-22T05:04:57.040Z,12.07
2018-02-22T05:07:24.780Z,12.70
2018-02-22T05:09:52.548Z,11.73
2018-02-22T05:12:20.020Z,11.25
2018-02-22T05:14:47.773Z,10.20
2018-02-22T05:17:15.532Z,11.38
2018-02-22T05:19:43.219Z,12.45
2018-02-22T05:22:10.765Z,11.63
2018-02-22T05:24:38.339Z,9.60
2018-02-22T05:27:06.598Z,12.00
2018-02-22T05:29:34.357Z,10.80
2018-02-22T05:32:01.832Z,12.77
2018-02-22T05:34:29.579Z,10.80
2018-02-22T05:36:57.102Z,12.37
2018-02-22T05:39:24.807Z,11.57
2018-02-22T05:41:52.440Z,11.77
2018-02-22T05:44:19.943Z,10.50
2018-02-22T05:46:47.399Z,11.52
2018-02-22T05:49:14.872Z,11.27
2018-02-22T05:51:42.355Z,10.80
2018-02-22T05:54:09.812Z,11.55
2018-02-22T05:56:37.275Z,11.70
2018-02-22T05:59:04.773Z,11.82
2018-02-22T06:01:32.547Z,12.73
2018-02-22T06:04:00.307Z,10.48
2018-02-22T06:06:28.076Z,11.20
2018-02-22T06:08:55.835Z,10.93
2018-02-22T06:11:23.605Z,12.25
2018-02-22T06:13:51.413Z,10.95
2018-02-22T06:16:19.011Z,11.23
2018-02-22T06:18:46.749Z,11.12
2018-02-22T06:21:14.364Z,11.23
2018-02-22T06:23:42.115Z,10.68
2018-02-22T06:26:09.579Z,9.68
2018-02-22T06:28:37.291Z,11.65
2018-02-22T06:31:04.768Z,11.75
2018-02-22T06:33:32.228Z,9.82
2018-02-22T06:35:59.717Z,11.15
2018-02-22T06:38:27.175Z,12.82
2018-02-22T06:40:54.940Z,11.60
2018-02-22T06:43:22.620Z,11.77
2018-02-22T06:45:50.317Z,11.25
2018-02-22T06:48:17.769Z,8.77
2018-02-22T06:50:45.384Z,10.77
2018-02-22T06:53:13.148Z,9.90
2018-02-22T06:55:40.629Z,11.63
2018-02-22T06:58:08.372Z,10.70
2018-02-22T07:00:37.368Z,10.95
2018-02-22T07:03:04.844Z,12.45
2018-02-22T07:05:32.300Z,10.07
2018-02-22T07:08:00.049Z,10.88
2018-02-22T07:10:27.511Z,10.35
2018-02-22T07:12:55.267Z,11.20
2018-02-22T07:15:23.064Z,11.68
2018-02-22T07:17:50.820Z,12.63
2018-02-22T07:20:18.291Z,10.52
2018-02-22T07:22:45.762Z,11.73
2018-02-22T07:25:13.221Z,11.43
2018-02-22T07:27:40.744Z,11.05
2018-02-22T07:30:09.016Z,10.35
2018-02-22T07:32:36.490Z,11.88
2018-02-22T07:35:04.204Z,11.35
2018-02-22T07:37:32.386Z,10.25
2018-02-22T07:39:59.991Z,12.50
2018-02-22T07:42:28.224Z,12.90
2018-02-22T07:44:55.824Z,10.55
2018-02-22T07:47:23.385Z,11.25
2018-02-22T07:49:50.850Z,12.00
2018-02-22T07:52:18.436Z,13.57
2018-02-22T07:54:45.908Z,11.00
2018-02-22T07:57:13.524Z,11.38
2018-02-22T07:59:40.984Z,12.63
2018-02-22T08:02:08.764Z,12.00
2018-02-22T08:04:36.415Z,11.00
2018-02-22T08:07:04.803Z,12.73
2018-02-22T08:09:32.273Z,11.48
2018-02-22T08:11:59.793Z,13.07
2018-02-22T08:14:27.275Z,12.48
2018-02-22T08:16:55.014Z,11.05
2018-02-22T08:19:22.476Z,12.05
2018-02-22T08:21:49.956Z,12.57
2018-02-22T08:24:17.748Z,11.98
2018-02-22T08:26:45.460Z,12.77
2018-02-22T08:29:12.993Z,12.32
2018-02-22T08:31:40.456Z,11.85
2018-02-22T08:34:08.131Z,12.82
2018-02-22T08:36:35.598Z,11.18
2018-02-22T08:39:03.062Z,11.38
2018-02-22T08:41:30.820Z,13.30
2018-02-22T08:43:58.579Z,11.90
2018-02-22T08:46:26.048Z,10.50
2018-02-22T08:48:53.520Z,12.82
2018-02-22T08:51:21.388Z,11.35
2018-02-22T08:53:49.643Z,11.70
2018-02-22T08:56:17.131Z,12.37
2018-02-22T08:58:44.592Z,10.27
2018-02-22T09:01:12.236Z,10.63
2018-02-22T09:03:39.713Z,10.55
2018-02-22T09:06:07.239Z,10.85
2018-02-22T09:08:35.001Z,11.75
2018-02-22T09:11:02.476Z,12.05
2018-02-22T09:13:29.923Z,11.40
2018-02-22T09:15:57.391Z,11.20
2018-02-22T09:18:24.863Z,11.88
2018-02-22T09:20:52.449Z,10.60
2018-02-22T09:23:20.057Z,9.75
2018-02-22T09:25:47.512Z,7.45
2018-02-22T09:28:14.980Z,10.88
2018-02-22T09:30:42.436Z,9.82
2018-02-22T09:33:10.066Z,10.95
2018-02-22T09:35:37.660Z,12.82
2018-02-22T09:38:05.124Z,11.27
2018-02-22T09:40:32.612Z,10.18
2018-02-22T09:43:00.328Z,9.82
2018-02-22T09:45:27.783Z,9.38
2018-02-22T09:47:55.265Z,8.48
2018-02-22T09:50:22.725Z,9.15
2018-02-22T09:52:50.635Z,9.18
2018-02-22T09:55:18.236Z,8.85
2018-02-22T09:57:46.002Z,8.95
2018-02-22T10:00:13.460Z,8.35
2018-02-22T10:02:40.949Z,7.78
2018-02-22T10:05:08.683Z,7.45
2018-02-22T10:07:36.140Z,8.60
2018-02-22T10:10:03.608Z,7.18
2018-02-22T10:12:31.070Z,6.95
2018-02-22T10:14:58.820Z,7.85
2018-02-22T10:17:26.284Z,7.87
2018-02-22T10:19:53.739Z,6.20
2018-02-22T10:22:21.503Z,7.03
2018-02-22T10:24:48.956Z,8.05
2018-02-22T10:27:16.483Z,8.13
2018-02-22T10:29:44.188Z,7.82
2018-02-22T10:32:11.859Z,7.45
2018-02-22T10:34:39.328Z,7.60
2018-02-22T10:37:06.859Z,8.20
2018-02-22T10:39:34.304Z,7.30
2018-02-22T10:42:02.088Z,6.75
2018-02-22T10:44:29.797Z,7.00
2018-02-22T10:46:57.453Z,5.95
2018-02-22T10:49:24.917Z,6.85
2018-02-22T10:51:52.689Z,6.07
2018-02-22T10:54:20.295Z,6.68
2018-02-22T10:56:48.059Z,5.70
2018-02-22T10:59:15.520Z,7.10
2018-02-22T11:01:48.712Z,4.85
2018-02-22T11:04:16.192Z,5.90
2018-02-22T11:06:44.651Z,5.25
2018-02-22T11:09:12.415Z,5.70
2018-02-22T11:11:40.187Z,4.87
2018-02-22T11:14:07.864Z,5.50
2018-02-22T11:16:35.323Z,5.75
2018-02-22T11:19:02.787Z,5.85
2018-02-22T11:21:30.320Z,5.15
2018-02-22T11:23:58.087Z,4.87
2018-02-22T11:26:25.855Z,4.37
2018-02-22T11:28:53.460Z,4.55
2018-02-22T11:31:20.915Z,4.25
2018-02-22T11:33:48.377Z,5.15
2018-02-22T11:36:15.991Z,4.10
2018-02-22T11:38:43.444Z,5.22
2018-02-22T11:41:11.008Z,3.85
2018-02-22T11:43:38.463Z,4.65
2018-02-22T11:46:06.040Z,4.68
2018-02-22T11:48:33.588Z,3.90
2018-02-22T11:51:01.035Z,4.68
2018-02-22T11:53:28.808Z,4.12
2018-02-22T11:55:56.572Z,4.37
2018-02-22T11:58:24.031Z,4.40
2018-02-22T12:00:51.648Z,4.50
2018-02-22T12:03:19.256Z,3.28
2018-02-22T12:05:46.707Z,5.03
2018-02-22T12:08:14.168Z,4.95
2018-02-22T12:10:41.634Z,5.30
2018-02-22T12:13:09.391Z,4.95
2018-02-22T12:15:36.852Z,4.65
2018-02-22T12:18:04.618Z,4.40
2018-02-22T12:20:32.086Z,5.30
2018-02-22T12:22:59.542Z,5.18
2018-02-22T12:25:27.000Z,5.30
2018-02-22T12:27:54.536Z,5.05
2018-02-22T12:30:22.218Z,5.75
2018-02-22T12:32:49.888Z,5.10
2018-02-22T12:35:17.437Z,4.60
2018-02-22T12:37:44.884Z,5.55
2018-02-22T12:40:12.340Z,4.75
2018-02-22T12:42:39.808Z,4.90
2018-02-22T12:45:07.268Z,5.25
2018-02-22T12:47:35.040Z,4.80
2018-02-22T12:50:02.678Z,5.43
2018-02-22T12:52:30.260Z,4.20
2018-02-22T12:54:57.707Z,3.80
2018-02-22T12:57:25.471Z,3.75
2018-02-22T12:59:52.944Z,4.80
2018-02-22T13:02:20.397Z,4.75
2018-02-22T13:04:48.162Z,3.70
2018-02-22T13:07:15.934Z,4.35
2018-02-22T13:09:43.692Z,4.45
2018-02-22T13:12:11.252Z,5.45
2018-02-22T13:14:38.916Z,4.90
2018-02-22T13:17:06.374Z,4.87
2018-02-22T13:19:33.927Z,5.30
2018-02-22T13:22:01.381Z,5.35
2018-02-22T13:24:28.839Z,4.30
2018-02-22T13:26:56.303Z,5.90
2018-02-22T13:29:23.772Z,4.68
2018-02-22T13:31:51.337Z,4.87
2018-02-22T13:34:35.476Z,5.62
2018-02-22T13:37:14.713Z,5.22
2018-02-22T13:39:42.376Z,3.72
2018-02-22T13:42:11.382Z,5.57
2018-02-22T13:44:50.999Z,5.35
2018-02-22T13:47:18.570Z,6.35
2018-02-22T13:49:58.016Z,6.10
2018-02-22T13:52:25.485Z,6.60
2018-02-22T13:54:53.031Z,6.18
2018-02-22T13:57:20.692Z,6.40
2018-02-22T13:59:48.156Z,6.30
2018-02-22T14:02:21.223Z,7.60
2018-02-22T14:04:48.899Z,7.95
2018-02-22T14:07:16.356Z,7.05
2018-02-22T14:09:44.049Z,6.93
2018-02-22T14:12:11.580Z,8.00
2018-02-22T14:14:39.048Z,8.18
2018-02-22T14:17:06.803Z,6.87
2018-02-22T14:19:34.567Z,7.68
2018-02-22T14:22:02.339Z,7.62
2018-02-22T14:24:29.804Z,7.45
2018-02-22T14:26:57.555Z,9.15
2018-02-22T14:29:25.056Z,7.43
2018-02-22T14:31:52.692Z,7.00
2018-02-22T14:34:20.249Z,7.20
2018-02-22T14:36:47.787Z,6.95
2018-02-22T14:39:15.321Z,7.00
2018-02-22T14:41:42.920Z,7.80
2018-02-22T14:44:10.685Z,8.77
2018-02-22T14:46:38.164Z,6.87
2018-02-22T14:49:05.832Z,7.35
2018-02-22T14:54:07.590Z,7.70
2018-02-22T14:56:35.354Z,7.18
2018-02-22T14:59:02.808Z,6.80
2018-02-22T15:01:30.287Z,6.53
2018-02-22T15:03:57.809Z,6.28
2018-02-22T15:06:25.490Z,8.23
2018-02-22T15:08:53.171Z,6.22
2018-02-22T15:11:20.708Z,6.60
2018-02-22T15:13:48.472Z,5.68
2018-02-22T15:16:15.932Z,6.12
2018-02-22T15:18:43.400Z,6.25
2018-02-22T15:21:10.864Z,5.85
2018-02-22T15:23:38.316Z,6.78
2018-02-22T15:26:06.075Z,7.10
2018-02-22T15:28:33.840Z,7.25
2018-02-22T15:31:01.316Z,7.53
2018-02-22T15:33:29.060Z,7.85
2018-02-22T15:35:56.827Z,8.45
2018-02-22T15:38:24.289Z,6.87
2018-02-22T15:40:51.967Z,8.55
2018-02-22T15:43:19.504Z,7.78
2018-02-22T15:45:46.970Z,7.35
2018-02-22T15:48:14.730Z,8.27
2018-02-22T15:50:42.183Z,7.55
2018-02-22T15:53:09.656Z,7.07
2018-02-22T15:55:37.106Z,7.93
2018-02-22T15:58:04.580Z,6.85
2018-02-22T16:00:32.246Z,7.70
2018-02-22T16:02:59.699Z,8.55
2018-02-22T16:05:27.239Z,7.90
2018-02-22T16:07:54.700Z,7.50
2018-02-22T16:10:22.275Z,8.23
2018-02-22T16:12:50.536Z,8.02
2018-02-22T16:15:18.300Z,8.50
2018-02-22T16:17:45.761Z,9.75
2018-02-22T16:20:13.569Z,8.93
2018-02-22T16:22:41.040Z,8.15
2018-02-22T16:25:08.747Z,9.43
2018-02-22T16:27:36.208Z,8.15
2018-02-22T16:30:03.692Z,9.00
2018-02-22T16:32:31.147Z,8.02
2018-02-22T16:34:58.778Z,8.00
2018-02-22T16:37:26.344Z,7.25
2018-02-22T16:39:54.584Z,6.95
2018-02-22T16:42:22.036Z,7.45
2018-02-22T16:44:49.580Z,7.65
2018-02-22T16:47:17.131Z,6.65
2018-02-22T16:49:44.859Z,7.25
2018-02-22T16:52:12.324Z,7.85
2018-02-22T16:54:40.092Z,8.80
2018-02-22T16:57:07.544Z,7.37
2018-02-22T16:59:35.023Z,6.55
2018-02-22T17:02:02.676Z,7.20
2018-02-22T17:04:30.128Z,7.47
2018-02-22T17:06:57.679Z,7.10
2018-02-22T17:09:25.428Z,7.87
2018-02-22T17:11:53.167Z,8.27
2018-02-22T17:14:20.828Z,7.85
2018-02-22T17:16:48.355Z,7.37
2018-02-22T17:19:15.901Z,8.20
2018-02-22T17:21:43.364Z,8.00
2018-02-22T17:24:10.820Z,7.85
2018-02-22T17:26:44.204Z,6.93
2018-02-22T17:29:17.357Z,7.87
2018-02-22T17:31:50.382Z,6.90
2018-02-22T17:34:17.843Z,7.15
2018-02-22T17:36:55.203Z,7.43
2018-02-22T17:39:28.484Z,7.93
2018-02-22T17:41:56.102Z,7.55
2018-02-22T17:44:23.597Z,7.85
2018-02-22T17:46:51.052Z,8.18
2018-02-22T17:49:18.509Z,7.10
2018-02-22T17:51:46.024Z,7.90
2018-02-22T17:54:13.476Z,6.62
2018-02-22T17:56:40.954Z,6.65
2018-02-22T17:59:09.066Z,7.45
2018-02-22T18:01:36.687Z,6.40
2018-02-22T18:04:04.167Z,6.87
2018-02-22T18:06:31.620Z,7.40
2018-02-22T18:08:59.073Z,7.80
2018-02-22T18:11:26.536Z,7.15
2018-02-22T18:13:54.068Z,6.25
2018-02-22T18:16:21.833Z,6.87
2018-02-22T18:18:49.456Z,6.47
2018-02-22T18:21:17.051Z,6.32
2018-02-22T18:23:44.513Z,6.37
2018-02-22T18:26:11.967Z,7.10
2018-02-22T18:28:39.424Z,6.05
2018-02-22T18:31:06.879Z,6.03
2018-02-22T18:33:34.335Z,5.37
2018-02-22T18:36:01.800Z,6.90
2018-02-22T18:38:29.318Z,7.97
2018-02-22T18:40:59.858Z,6.40
2018-02-22T18:43:33.127Z,6.68
2018-02-22T18:46:00.585Z,6.68
2018-02-22T18:48:28.243Z,7.50
2018-02-22T18:50:55.763Z,7.53
2018-02-22T18:53:23.223Z,7.72
2018-02-22T18:55:50.989Z,7.53
2018-02-22T18:58:18.444Z,8.13
2018-02-22T19:00:45.895Z,8.75
2018-02-22T19:03:13.669Z,8.57
2018-02-22T19:05:41.140Z,7.95
2018-02-22T19:08:08.896Z,9.07
2018-02-22T19:10:36.352Z,9.38
2018-02-22T19:13:04.012Z,9.15
2018-02-22T19:15:31.497Z,10.00
2018-02-22T19:17:59.032Z,8.63
2018-02-22T19:20:26.488Z,7.90
2018-02-22T19:22:54.251Z,8.25
2018-02-22T19:25:22.019Z,7.85
2018-02-22T19:27:49.786Z,10.90
2018-02-22T19:30:17.387Z,9.00
2018-02-22T19:32:45.608Z,8.57
2018-02-22T19:35:13.080Z,7.28
2018-02-22T19:37:40.844Z,9.00
2018-02-22T19:40:08.612Z,7.90
2018-02-22T19:42:36.080Z,8.45
2018-02-22T19:45:03.556Z,8.43
2018-02-22T19:47:31.812Z,9.00
2018-02-22T19:49:59.360Z,8.15
2018-02-22T19:52:26.823Z,8.32
2018-02-22T19:54:54.589Z,9.30
2018-02-22T19:57:22.275Z,8.95
2018-02-22T19:59:49.728Z,9.10
2018-02-22T20:02:17.191Z,8.50
2018-02-22T20:04:44.657Z,8.48
2018-02-22T20:07:12.115Z,8.65
2018-02-22T20:09:39.580Z,9.15
2018-02-22T20:12:07.099Z,9.10
2018-02-22T20:14:34.568Z,9.50
2018-02-22T20:17:02.239Z,9.00
2018-02-22T20:19:29.779Z,9.57
2018-02-22T20:21:57.460Z,8.95
2018-02-22T20:24:25.009Z,9.98
2018-02-22T20:26:52.768Z,9.43
2018-02-22T20:29:20.538Z,8.15
2018-02-22T20:31:47.995Z,8.40
2018-02-22T20:34:15.760Z,9.55
2018-02-22T20:36:43.523Z,9.75
2018-02-22T20:39:11.290Z,10.30
2018-02-22T20:41:39.059Z,9.90
2018-02-22T20:44:06.824Z,11.93
2018-02-22T20:46:34.584Z,9.85
2018-02-22T20:49:02.347Z,9.75
2018-02-22T20:51:39.725Z,9.52
2018-02-22T20:54:07.184Z,11.40
2018-02-22T20:56:34.658Z,10.27
2018-02-22T20:59:02.228Z,10.13
2018-02-22T21:01:29.700Z,11.45
2018-02-22T21:03:58.071Z,10.30
2018-02-22T21:06:25.622Z,9.80
2018-02-22T21:08:53.376Z,10.65
2018-02-22T21:11:20.834Z,10.57
2018-02-22T21:13:48.530Z,9.38
2018-02-22T21:16:15.995Z,12.00
2018-02-22T21:18:43.518Z,11.57
2018-02-22T21:21:11.280Z,10.23
2018-02-22T21:23:38.752Z,10.93
2018-02-22T21:26:06.217Z,9.65
2018-02-22T21:28:33.967Z,11.90
2018-02-22T21:31:01.644Z,9.57
2018-02-22T21:33:29.183Z,12.82
2018-02-22T21:35:56.955Z,11.07
2018-02-22T21:38:24.415Z,11.40
2018-02-22T21:40:52.179Z,10.63
2018-02-22T21:43:19.856Z,11.25
2018-02-22T21:45:47.659Z,11.43
2018-02-22T21:48:15.124Z,11.50
2018-02-22T21:50:42.621Z,11.07
2018-02-22T21:53:10.079Z,9.35
2018-02-22T21:55:37.555Z,10.25
2018-02-22T21:58:05.221Z,11.50
2018-02-22T22:00:32.685Z,11.20
2018-02-22T22:03:00.215Z,9.18
2018-02-22T22:05:27.978Z,10.07
2018-02-22T22:07:55.908Z,10.00
2018-02-22T22:10:23.520Z,9.52
2018-02-22T22:12:51.277Z,9.48
2018-02-22T22:15:18.741Z,9.80
2018-02-22T22:17:46.203Z,11.55
2018-02-22T22:20:13.667Z,12.05
2018-02-22T22:22:41.897Z,12.73
2018-02-22T22:25:09.490Z,11.60
2018-02-22T22:27:37.281Z,11.82
2018-02-22T22:30:04.728Z,11.23
2018-02-22T22:32:32.484Z,14.00
2018-02-22T22:35:00.244Z,13.25
2018-02-22T22:37:27.719Z,13.43
2018-02-22T22:39:55.383Z,12.80
2018-02-22T22:42:22.844Z,12.25
2018-02-22T22:44:50.324Z,11.90
2018-02-22T22:47:17.842Z,11.98
2018-02-22T22:49:45.604Z,12.10
2018-02-22T22:52:13.072Z,12.10
2018-02-22T22:54:40.527Z,10.18
2018-02-22T22:57:08.020Z,10.38
2018-02-22T22:59:35.747Z,10.55
2018-02-22T23:02:03.511Z,11.35
2018-02-22T23:04:31.151Z,11.60
2018-02-22T23:06:58.726Z,9.25
2018-02-22T23:09:26.413Z,10.50
2018-02-22T23:11:53.877Z,11.43
2018-02-22T23:14:21.343Z,9.63
2018-02-22T23:16:48.817Z,10.13
2018-02-22T23:19:16.327Z,10.95
2018-02-22T23:21:44.027Z,10.65
2018-02-22T23:24:11.483Z,10.40
2018-02-22T23:26:38.938Z,9.52
2018-02-22T23:29:06.463Z,10.15
2018-02-22T23:31:34.231Z,8.20
2018-02-22T23:34:01.908Z,10.25
2018-02-22T23:36:29.455Z,9.90
2018-02-22T23:38:56.908Z,8.40
2018-02-22T23:41:29.375Z,9.90
2018-02-22T23:43:56.821Z,8.63
2018-02-22T23:46:24.427Z,9.70
2018-02-22T23:48:51.973Z,9.57
2018-02-22T23:51:19.423Z,8.80
2018-02-22T23:53:46.939Z,8.98
2018-02-22T23:56:14.415Z,9.43
2018-02-22T23:58:42.104Z,10.23
